createdAt,value
2019-05-09T00:00:23.886Z,98.37
2019-05-09T00:01:28.553Z,98.37
2019-05-09T00:02:39.252Z,98.49
2019-05-09T00:03:44.422Z,98.53
2019-05-09T00:04:47.279Z,98.53
2019-05-09T00:05:49.943Z,98.68
2019-05-09T00:06:54.448Z,98.19
2019-05-09T00:07:56.971Z,97.77
2019-05-09T00:08:59.578Z,98.12
2019-05-09T00:10:04.033Z,98.01
2019-05-09T00:11:07.445Z,97.78
2019-05-09T00:12:10.138Z,97.79
2019-05-09T00:13:13.686Z,98.19
2019-05-09T00:14:16.597Z,98.04
2019-05-09T00:15:19.308Z,98.04
2019-05-09T00:16:23.504Z,97.95
2019-05-09T00:17:26.435Z,98.47
2019-05-09T00:18:29.132Z,98.47
2019-05-09T00:19:33.356Z,97.73
2019-05-09T00:21:04.296Z,97.84
2019-05-09T00:22:07.660Z,97.21
2019-05-09T00:23:10.764Z,97.55
2019-05-09T00:24:14.016Z,97.51
2019-05-09T00:25:16.759Z,97.26
2019-05-09T00:26:19.866Z,97.26
2019-05-09T00:27:23.157Z,97.78
2019-05-09T00:28:27.980Z,97.55
2019-05-09T00:29:40.213Z,97.59
2019-05-09T00:31:05.126Z,97.59
2019-05-09T00:32:26.606Z,97.61
2019-05-09T00:33:30.467Z,98.06
2019-05-09T00:35:04.155Z,97.79
2019-05-09T00:36:06.772Z,98.39
2019-05-09T00:37:09.471Z,97.18
2019-05-09T00:38:13.281Z,97.14
2019-05-09T00:39:16.158Z,97.63
2019-05-09T00:40:20.806Z,97.63
2019-05-09T00:41:24.024Z,97.52
2019-05-09T00:42:27.178Z,97.48
2019-05-09T00:43:29.799Z,97.23
2019-05-09T00:44:39.181Z,97.95
2019-05-09T00:45:57.472Z,97.95
2019-05-09T00:47:16.754Z,98.75
2019-05-09T00:48:23.047Z,98.37
2019-05-09T00:49:26.661Z,98.37
2019-05-09T00:50:29.701Z,98.52
2019-05-09T00:51:33.892Z,98.67
2019-05-09T00:52:36.671Z,98.71
2019-05-09T00:53:39.858Z,98.78
2019-05-09T00:54:43.779Z,98.78
2019-05-09T00:55:46.525Z,98.67
2019-05-09T00:56:49.226Z,98.15
2019-05-09T00:57:53.417Z,97.92
2019-05-09T00:58:56.161Z,98.17
2019-05-09T00:59:59.311Z,98.04
2019-05-09T01:01:05.113Z,98.33
2019-05-09T01:02:08.251Z,97.95
2019-05-09T01:03:14.282Z,98.15
2019-05-09T01:04:17.477Z,98.15
2019-05-09T01:05:20.545Z,98.98
2019-05-09T01:06:24.209Z,98.98
2019-05-09T01:07:33.490Z,98.93
2019-05-09T01:08:34.411Z,98.55
2019-05-09T01:09:37.800Z,98.88
2019-05-09T01:10:40.744Z,99.00
2019-05-09T01:11:44.073Z,98.77
2019-05-09T01:12:47.271Z,99.04
2019-05-09T01:13:50.085Z,98.77
2019-05-09T01:14:53.886Z,99.22
2019-05-09T01:15:56.710Z,98.80
2019-05-09T01:16:59.394Z,98.80
2019-05-09T01:18:04.460Z,98.82
2019-05-09T01:19:07.263Z,98.82
2019-05-09T01:20:09.939Z,98.38
2019-05-09T01:21:13.402Z,98.71
2019-05-09T01:22:16.166Z,98.80
2019-05-09T01:23:18.887Z,98.25
2019-05-09T01:24:23.298Z,98.13
2019-05-09T01:25:26.626Z,98.45
2019-05-09T01:26:29.675Z,98.35
2019-05-09T01:27:33.915Z,98.61
2019-05-09T01:28:36.838Z,98.08
2019-05-09T01:29:39.475Z,98.03
2019-05-09T01:30:43.822Z,98.03
2019-05-09T01:31:51.611Z,98.13
2019-05-09T01:33:13.605Z,98.13
2019-05-09T01:34:28.805Z,98.35
2019-05-09T01:35:33.850Z,98.52
2019-05-09T01:36:54.094Z,98.29
2019-05-09T01:37:57.088Z,97.97
2019-05-09T01:38:59.767Z,97.55
2019-05-09T01:40:04.297Z,98.14
2019-05-09T01:41:22.866Z,97.93
2019-05-09T01:42:11.313Z,98.13
2019-05-09T01:43:15.680Z,98.13
2019-05-09T01:44:18.850Z,97.50
2019-05-09T01:45:23.556Z,98.16
2019-05-09T01:46:25.865Z,97.74
2019-05-09T01:47:28.945Z,97.60
2019-05-09T01:48:33.914Z,97.62
2019-05-09T01:49:35.971Z,97.83
2019-05-09T01:50:39.109Z,97.47
2019-05-09T01:51:44.347Z,97.77
2019-05-09T01:52:46.495Z,97.56
2019-05-09T01:53:53.228Z,97.46
2019-05-09T01:54:55.899Z,97.44
2019-05-09T01:55:58.870Z,97.52
2019-05-09T01:57:03.235Z,97.49
2019-05-09T01:58:06.192Z,97.60
2019-05-09T01:59:10.360Z,97.96
2019-05-09T02:00:13.325Z,97.96
2019-05-09T02:01:16.007Z,97.76
2019-05-09T02:02:19.102Z,97.73
2019-05-09T02:03:23.335Z,98.16
2019-05-09T02:04:26.108Z,97.52
2019-05-09T02:05:28.814Z,97.92
2019-05-09T02:06:33.280Z,97.42
2019-05-09T02:07:36.000Z,97.77
2019-05-09T02:08:38.706Z,97.58
2019-05-09T02:09:44.692Z,97.13
2019-05-09T02:10:47.578Z,97.29
2019-05-09T02:11:50.277Z,97.35
2019-05-09T02:12:53.905Z,97.35
2019-05-09T02:13:56.607Z,97.66
2019-05-09T02:15:05.248Z,98.29
2019-05-09T02:16:34.618Z,97.71
2019-05-09T02:18:05.478Z,97.71
2019-05-09T02:19:33.169Z,97.87
2019-05-09T02:20:36.343Z,97.85
2019-05-09T02:21:39.353Z,98.46
2019-05-09T02:22:43.486Z,98.46
2019-05-09T02:23:46.264Z,98.10
2019-05-09T02:24:49.371Z,98.10
2019-05-09T02:25:53.263Z,97.36
2019-05-09T02:26:55.985Z,98.07
2019-05-09T02:27:59.196Z,97.77
2019-05-09T02:29:03.243Z,97.77
2019-05-09T02:30:06.222Z,97.82
2019-05-09T02:31:08.968Z,97.84
2019-05-09T02:32:14.340Z,97.90
2019-05-09T02:33:16.863Z,98.01
2019-05-09T02:34:19.999Z,98.01
2019-05-09T02:35:22.635Z,98.05
2019-05-09T02:36:29.459Z,98.25
2019-05-09T02:37:30.066Z,97.94
2019-05-09T02:38:32.766Z,97.45
2019-05-09T02:39:35.371Z,98.12
2019-05-09T02:40:39.343Z,98.19
2019-05-09T02:41:59.401Z,98.67
2019-05-09T02:42:48.935Z,98.20
2019-05-09T02:43:50.914Z,98.14
2019-05-09T02:44:53.525Z,97.99
2019-05-09T02:46:19.017Z,98.22
2019-05-09T02:47:23.739Z,98.40
2019-05-09T02:48:28.854Z,98.21
2019-05-09T02:49:30.808Z,98.21
2019-05-09T02:50:33.492Z,98.53
2019-05-09T02:51:38.753Z,98.31
2019-05-09T02:52:40.989Z,98.19
2019-05-09T02:53:43.630Z,98.58
2019-05-09T02:54:49.701Z,98.05
2019-05-09T02:55:50.675Z,98.21
2019-05-09T02:56:53.326Z,98.38
2019-05-09T02:57:59.167Z,98.05
2019-05-09T02:59:12.439Z,98.05
2019-05-09T03:00:40.561Z,98.18
2019-05-09T03:02:02.208Z,97.72
2019-05-09T03:03:11.242Z,98.09
2019-05-09T03:04:14.249Z,98.38
2019-05-09T03:05:19.631Z,98.22
2019-05-09T03:06:21.677Z,98.39
2019-05-09T03:07:43.101Z,97.93
2019-05-09T03:08:48.841Z,98.08
2019-05-09T03:09:50.306Z,98.07
2019-05-09T03:10:52.951Z,98.01
2019-05-09T03:11:58.555Z,98.31
2019-05-09T03:13:00.398Z,98.30
2019-05-09T03:14:03.170Z,97.89
2019-05-09T03:15:08.475Z,98.27
2019-05-09T03:16:13.348Z,98.41
2019-05-09T03:17:18.427Z,98.56
2019-05-09T03:18:20.820Z,98.53
2019-05-09T03:19:23.643Z,98.68
2019-05-09T03:20:45.068Z,98.64
2019-05-09T03:21:58.224Z,98.54
2019-05-09T03:22:59.598Z,98.54
2019-05-09T03:24:02.305Z,98.69
2019-05-09T03:25:08.791Z,98.79
2019-05-09T03:26:13.621Z,98.79
2019-05-09T03:27:23.119Z,99.23
2019-05-09T03:29:02.665Z,98.79
2019-05-09T03:30:11.445Z,99.28
2019-05-09T03:31:12.239Z,99.24
2019-05-09T03:32:19.065Z,99.43
2019-05-09T03:33:21.948Z,99.43
2019-05-09T03:34:25.055Z,98.59
2019-05-09T03:35:28.100Z,98.66
2019-05-09T03:36:30.747Z,98.54
2019-05-09T03:37:33.822Z,99.26
2019-05-09T03:38:37.722Z,98.57
2019-05-09T03:39:40.474Z,98.74
2019-05-09T03:40:43.129Z,98.96
2019-05-09T03:41:45.756Z,98.75
2019-05-09T03:42:52.892Z,98.22
2019-05-09T03:43:58.357Z,98.88
2019-05-09T03:45:00.470Z,98.75
2019-05-09T03:46:25.102Z,98.46
2019-05-09T03:47:37.642Z,98.69
2019-05-09T03:48:44.187Z,98.46
2019-05-09T03:50:08.062Z,98.75
2019-05-09T03:51:10.509Z,98.75
2019-05-09T03:52:14.177Z,98.38
2019-05-09T03:53:18.410Z,98.43
2019-05-09T03:54:21.573Z,98.29
2019-05-09T03:55:34.391Z,98.25
2019-05-09T03:56:44.582Z,98.08
2019-05-09T03:57:58.071Z,98.64
2019-05-09T03:59:01.284Z,98.72
2019-05-09T04:00:04.048Z,98.96
2019-05-09T04:01:10.873Z,98.39
2019-05-09T04:02:14.183Z,98.20
2019-05-09T04:03:19.842Z,98.41
2019-05-09T04:04:21.209Z,98.04
2019-05-09T04:05:23.858Z,98.20
2019-05-09T04:06:28.172Z,98.02
2019-05-09T04:07:31.100Z,97.58
2019-05-09T04:08:34.578Z,98.14
2019-05-09T04:09:37.492Z,98.04
2019-05-09T04:10:41.564Z,97.77
2019-05-09T04:11:48.523Z,98.43
2019-05-09T04:12:55.757Z,98.35
2019-05-09T04:14:00.143Z,97.78
2019-05-09T04:15:03.141Z,97.97
2019-05-09T04:16:07.514Z,98.51
2019-05-09T04:17:12.258Z,98.29
2019-05-09T04:18:14.969Z,97.70
2019-05-09T04:19:18.190Z,97.68
2019-05-09T04:20:20.828Z,97.94
2019-05-09T04:21:24.197Z,97.66
2019-05-09T04:22:27.209Z,97.66
2019-05-09T04:23:30.677Z,98.25
2019-05-09T04:24:33.493Z,98.08
2019-05-09T04:25:38.389Z,98.08
2019-05-09T04:26:57.449Z,98.22
2019-05-09T04:27:59.769Z,98.06
2019-05-09T04:29:02.659Z,97.74
2019-05-09T04:30:09.465Z,97.73
2019-05-09T04:31:11.721Z,97.73
2019-05-09T04:32:14.911Z,97.78
2019-05-09T04:33:18.152Z,97.32
2019-05-09T04:34:21.410Z,97.32
2019-05-09T04:35:24.629Z,97.40
2019-05-09T04:36:42.155Z,97.67
2019-05-09T04:37:45.275Z,97.67
2019-05-09T04:38:48.172Z,96.98
2019-05-09T04:39:54.055Z,97.08
2019-05-09T04:40:58.172Z,96.95
2019-05-09T04:42:05.167Z,96.95
2019-05-09T04:43:12.520Z,97.82
2019-05-09T04:44:16.938Z,97.76
2019-05-09T04:45:28.280Z,97.76
2019-05-09T04:46:31.130Z,97.69
2019-05-09T04:47:38.648Z,97.63
2019-05-09T04:48:38.249Z,97.63
2019-05-09T04:49:45.180Z,97.85
2019-05-09T04:50:59.306Z,97.45
2019-05-09T04:51:59.469Z,97.66
2019-05-09T04:53:02.249Z,97.55
2019-05-09T04:54:07.210Z,97.66
2019-05-09T04:55:10.054Z,97.85
2019-05-09T04:56:27.904Z,97.01
2019-05-09T04:57:32.919Z,96.84
2019-05-09T04:58:37.629Z,96.92
2019-05-09T04:59:40.414Z,97.16
2019-05-09T05:01:12.019Z,97.15
2019-05-09T05:02:27.807Z,97.12
2019-05-09T05:03:31.068Z,97.12
2019-05-09T05:04:33.751Z,96.89
2019-05-09T05:05:40.194Z,96.72
2019-05-09T05:06:43.119Z,96.90
2019-05-09T05:07:47.969Z,97.00
2019-05-09T05:08:50.748Z,97.00
2019-05-09T05:09:53.570Z,97.19
2019-05-09T05:10:58.214Z,96.51
2019-05-09T05:12:01.013Z,96.61
2019-05-09T05:13:03.642Z,96.60
2019-05-09T05:14:09.081Z,96.51
2019-05-09T05:15:14.223Z,96.34
2019-05-09T05:16:18.464Z,96.76
2019-05-09T05:17:21.491Z,96.90
2019-05-09T05:18:28.263Z,96.58
2019-05-09T05:19:35.158Z,96.58
2019-05-09T05:20:37.997Z,96.46
2019-05-09T05:21:44.907Z,96.46
2019-05-09T05:22:53.324Z,96.33
2019-05-09T05:24:08.198Z,95.96
2019-05-09T05:25:12.598Z,96.08
2019-05-09T05:26:15.225Z,95.57
2019-05-09T05:27:21.042Z,94.92
2019-05-09T05:28:24.150Z,94.93
2019-05-09T05:29:28.169Z,94.93
2019-05-09T05:43:41.565Z,95.26
2019-05-09T05:44:40.617Z,94.98
2019-05-09T05:45:53.079Z,94.73
2019-05-09T05:47:18.040Z,94.10
2019-05-09T05:48:27.894Z,94.75
2019-05-09T05:49:30.712Z,94.80
2019-05-09T05:50:33.410Z,94.49
2019-05-09T05:51:54.399Z,94.34
2019-05-09T05:52:57.820Z,94.51
2019-05-09T05:54:04.294Z,93.99
2019-05-09T05:55:11.281Z,94.34
2019-05-09T05:56:17.168Z,93.79
2019-05-09T05:57:20.206Z,94.25
2019-05-09T05:58:23.011Z,94.15
2019-05-09T05:59:28.356Z,94.10
2019-05-09T06:00:33.266Z,94.57
2019-05-09T06:01:38.210Z,94.44
2019-05-09T06:02:42.011Z,94.10
2019-05-09T06:03:44.724Z,93.72
2019-05-09T06:04:49.839Z,93.43
2019-05-09T06:05:52.542Z,92.88
2019-05-09T06:06:58.847Z,92.60
2019-05-09T06:08:08.024Z,92.75
2019-05-09T06:09:14.827Z,92.70
2019-05-09T06:10:18.956Z,92.79
2019-05-09T06:11:22.133Z,92.98
2019-05-09T06:12:27.672Z,93.61
2019-05-09T06:13:30.404Z,93.61
2019-05-09T06:14:37.614Z,92.60
2019-05-09T06:15:39.849Z,92.69
2019-05-09T06:16:42.525Z,92.21
2019-05-09T06:17:45.214Z,92.21
2019-05-09T06:18:48.253Z,92.52
2019-05-09T06:19:51.080Z,92.38
2019-05-09T06:20:58.283Z,92.54
2019-05-09T06:22:01.267Z,91.75
2019-05-09T06:23:04.132Z,91.95
2019-05-09T06:24:08.562Z,92.16
2019-05-09T06:25:11.845Z,92.18
2019-05-09T06:26:14.798Z,92.18
2019-05-09T06:27:18.347Z,92.23
2019-05-09T06:28:21.240Z,92.68
2019-05-09T06:29:23.994Z,92.08
2019-05-09T06:30:28.126Z,92.33
2019-05-09T06:31:30.984Z,91.71
2019-05-09T06:32:34.018Z,91.42
2019-05-09T06:33:46.248Z,91.04
2019-05-09T06:34:43.736Z,90.75
2019-05-09T06:35:48.091Z,90.74
2019-05-09T06:36:50.913Z,91.05
2019-05-09T06:37:58.822Z,91.02
2019-05-09T06:39:03.616Z,90.40
2019-05-09T06:40:13.430Z,90.11
2019-05-09T06:41:18.218Z,90.30
2019-05-09T06:42:20.857Z,90.39
2019-05-09T06:43:25.732Z,90.56
2019-05-09T06:44:33.239Z,90.56
2019-05-09T06:45:48.483Z,89.24
2019-05-09T06:46:55.107Z,87.67
2019-05-09T06:48:00.477Z,87.83
2019-05-09T06:49:21.460Z,87.50
2019-05-09T06:50:13.909Z,85.23
2019-05-09T06:51:20.644Z,85.67
2019-05-09T06:52:24.979Z,84.79
2019-05-09T06:53:28.104Z,83.45
2019-05-09T06:54:31.066Z,82.26
2019-05-09T06:55:34.313Z,83.11
2019-05-09T06:56:38.164Z,83.03
2019-05-09T06:57:43.245Z,83.06
2019-05-09T06:58:48.087Z,83.06
2019-05-09T06:59:50.971Z,82.12
2019-05-09T07:01:00.911Z,81.55
2019-05-09T07:02:08.197Z,81.57
2019-05-09T07:03:14.819Z,80.34
2019-05-09T07:04:27.640Z,80.36
2019-05-09T07:05:49.389Z,81.11
2019-05-09T07:07:14.662Z,80.26
2019-05-09T07:08:34.794Z,78.07
2019-05-09T07:09:47.908Z,78.86
2019-05-09T07:10:51.540Z,79.60
2019-05-09T07:11:54.523Z,78.85
2019-05-09T07:12:58.453Z,78.58
2019-05-09T07:14:01.725Z,79.59
2019-05-09T07:15:08.738Z,78.57
2019-05-09T07:16:11.891Z,79.83
2019-05-09T07:17:19.535Z,80.35
2019-05-09T07:18:35.326Z,80.45
2019-05-09T07:19:38.548Z,81.13
2019-05-09T07:20:41.781Z,81.17
2019-05-09T07:22:21.290Z,81.48
2019-05-09T07:23:28.214Z,82.66
2019-05-09T07:24:31.380Z,82.84
2019-05-09T07:25:51.192Z,82.25
2019-05-09T07:26:54.043Z,82.60
2019-05-09T07:27:58.672Z,82.60
2019-05-09T07:29:07.550Z,83.05
2019-05-09T07:30:20.608Z,83.05
2019-05-09T07:31:31.227Z,83.28
2019-05-09T07:32:39.652Z,83.56
2019-05-09T07:34:04.770Z,83.56
2019-05-09T07:35:08.951Z,83.04
2019-05-09T07:36:12.128Z,82.84
2019-05-09T07:37:18.587Z,82.33
2019-05-09T07:38:31.545Z,82.36
2019-05-09T07:39:34.253Z,82.36
2019-05-09T07:40:38.529Z,83.52
2019-05-09T07:41:41.962Z,83.67
2019-05-09T07:42:44.972Z,83.54
2019-05-09T07:43:48.156Z,83.42
2019-05-09T07:44:54.470Z,83.42
2019-05-09T07:46:12.513Z,82.79
2019-05-09T07:47:17.647Z,84.35
2019-05-09T07:48:25.854Z,84.35
2019-05-09T07:49:29.616Z,83.22
2019-05-09T07:50:38.901Z,82.51
2019-05-09T07:51:43.211Z,83.25
2019-05-09T07:52:48.020Z,83.25
2019-05-09T07:53:51.108Z,83.73
2019-05-09T07:54:58.046Z,83.73
2019-05-09T07:56:03.043Z,83.62
2019-05-09T07:57:08.335Z,83.50
2019-05-09T07:58:14.260Z,82.50
2019-05-09T07:59:15.465Z,82.50
2019-05-09T08:00:22.464Z,81.51
2019-05-09T08:01:28.039Z,81.22
2019-05-09T08:02:34.291Z,81.47
2019-05-09T08:03:42.164Z,81.21
2019-05-09T08:04:45.168Z,79.64
2019-05-09T08:05:50.608Z,80.25
2019-05-09T08:06:59.301Z,80.96
2019-05-09T08:08:02.453Z,81.34
2019-05-09T08:09:08.627Z,80.75
2019-05-09T08:10:11.577Z,80.79
2019-05-09T08:11:18.131Z,81.20
2019-05-09T08:12:23.644Z,81.09
2019-05-09T08:13:35.353Z,80.45
2019-05-09T08:14:38.212Z,80.45
2019-05-09T08:15:43.129Z,80.93
2019-05-09T08:16:47.515Z,80.56
2019-05-09T08:17:51.359Z,80.56
2019-05-09T08:18:54.392Z,81.30
2019-05-09T08:19:58.291Z,81.59
2019-05-09T08:21:01.161Z,81.85
2019-05-09T08:22:24.561Z,81.25
2019-05-09T08:23:22.879Z,81.32
2019-05-09T08:24:29.376Z,81.17
2019-05-09T08:25:30.863Z,81.17
2019-05-09T08:26:33.814Z,80.57
2019-05-09T08:27:37.830Z,80.73
2019-05-09T08:28:40.721Z,80.73
2019-05-09T08:29:47.895Z,81.25
2019-05-09T08:30:50.352Z,81.29
2019-05-09T08:31:58.042Z,81.44
2019-05-09T08:33:00.188Z,81.23
2019-05-09T08:34:02.958Z,81.78
2019-05-09T08:35:08.035Z,81.78
2019-05-09T08:36:10.757Z,81.02
2019-05-09T08:37:17.591Z,81.32
2019-05-09T08:38:20.438Z,81.00
2019-05-09T08:39:23.230Z,81.67
2019-05-09T08:40:28.389Z,81.57
2019-05-09T08:41:30.465Z,81.04
2019-05-09T08:42:33.596Z,80.61
2019-05-09T08:43:38.927Z,80.61
2019-05-09T08:44:43.840Z,80.86
2019-05-09T08:45:48.415Z,80.28
2019-05-09T08:46:50.943Z,80.55
2019-05-09T08:47:57.631Z,80.54
2019-05-09T08:48:59.550Z,80.54
2019-05-09T08:50:10.942Z,81.19
2019-05-09T08:51:37.065Z,80.73
2019-05-09T08:52:32.721Z,81.41
2019-05-09T08:53:37.947Z,81.41
2019-05-09T08:54:52.517Z,79.61
2019-05-09T08:56:00.240Z,79.61
2019-05-09T08:57:07.805Z,79.93
2019-05-09T08:58:10.553Z,79.90
2019-05-09T08:59:13.732Z,79.90
2019-05-09T09:00:18.929Z,80.03
2019-05-09T09:01:30.718Z,80.62
2019-05-09T09:03:49.839Z,80.38
2019-05-09T09:04:54.931Z,81.06
2019-05-09T09:05:57.935Z,81.90
2019-05-09T09:07:03.191Z,82.30
2019-05-09T09:08:08.571Z,83.13
2019-05-09T09:09:11.552Z,83.78
2019-05-09T09:10:14.214Z,84.32
2019-05-09T09:11:34.112Z,86.69
2019-05-09T09:12:38.362Z,88.07
2019-05-09T09:13:42.192Z,89.82
2019-05-09T09:14:47.650Z,89.82
2019-05-09T09:16:08.337Z,90.19
2019-05-09T09:16:54.612Z,91.02
2019-05-09T09:18:00.085Z,91.53
2019-05-09T09:19:02.795Z,92.05
2019-05-09T09:20:07.695Z,92.05
2019-05-09T09:21:13.112Z,92.25
2019-05-09T09:22:18.131Z,92.29
2019-05-09T09:23:21.370Z,92.16
2019-05-09T09:24:24.039Z,92.16
2019-05-09T09:25:31.083Z,92.16
2019-05-09T09:26:34.007Z,91.77
2019-05-09T09:27:38.056Z,91.47
2019-05-09T09:28:40.970Z,90.94
2019-05-09T09:29:47.933Z,90.61
2019-05-09T09:30:48.651Z,90.61
2019-05-09T09:31:51.602Z,90.99
2019-05-09T09:32:58.680Z,90.54
2019-05-09T09:34:04.159Z,90.54
2019-05-09T09:35:09.449Z,86.62
2019-05-09T09:36:12.416Z,87.95
2019-05-09T09:37:18.658Z,88.79
2019-05-09T09:38:28.022Z,88.76
2019-05-09T09:39:34.612Z,89.40
2019-05-09T09:40:38.480Z,89.44
2019-05-09T09:41:41.602Z,89.44
2019-05-09T09:42:44.857Z,87.92
2019-05-09T09:43:47.883Z,88.38
2019-05-09T09:44:51.557Z,88.68
2019-05-09T09:46:07.200Z,88.68
2019-05-09T09:47:01.348Z,88.18
2019-05-09T09:48:08.951Z,87.66
2019-05-09T09:49:12.203Z,87.97
2019-05-09T09:50:17.821Z,86.88
2019-05-09T09:51:23.175Z,88.77
2019-05-09T09:52:34.245Z,89.38
2019-05-09T09:53:44.017Z,89.52
2019-05-09T09:54:44.111Z,90.31
2019-05-09T09:55:52.125Z,90.39
2019-05-09T09:56:58.618Z,91.00
2019-05-09T09:58:02.568Z,90.84
2019-05-09T09:59:20.457Z,89.93
2019-05-09T10:00:48.275Z,89.93
2019-05-09T10:02:10.332Z,87.80
2019-05-09T10:03:18.577Z,87.80
2019-05-09T10:04:24.344Z,87.85
2019-05-09T10:05:30.421Z,86.75
2019-05-09T10:06:33.092Z,86.75
2019-05-09T10:07:43.413Z,85.58
2019-05-09T10:08:59.496Z,85.58
2019-05-09T10:10:02.369Z,83.75
2019-05-09T10:11:08.081Z,84.76
2019-05-09T10:12:11.841Z,85.08
2019-05-09T10:13:14.652Z,85.08
2019-05-09T10:14:33.364Z,83.60
2019-05-09T10:15:43.429Z,83.81
2019-05-09T10:17:17.904Z,83.26
2019-05-09T10:18:40.052Z,83.26
2019-05-09T10:19:58.610Z,83.14
2019-05-09T10:21:07.787Z,82.94
2019-05-09T10:22:14.314Z,81.06
2019-05-09T10:23:21.667Z,80.92
2019-05-09T10:24:24.682Z,81.70
2019-05-09T10:25:29.337Z,82.29
2019-05-09T10:26:32.632Z,81.75
2019-05-09T10:27:38.706Z,81.35
2019-05-09T10:28:45.293Z,80.95
2019-05-09T10:29:47.976Z,80.90
2019-05-09T10:43:04.654Z,82.14
2019-05-09T10:44:32.829Z,81.82
2019-05-09T10:45:43.167Z,82.71
2019-05-09T10:47:02.240Z,82.71
2019-05-09T10:48:23.908Z,83.59
2019-05-09T10:49:32.415Z,83.71
2019-05-09T10:50:44.344Z,83.71
2019-05-09T10:51:58.139Z,82.88
2019-05-09T10:53:07.812Z,83.10
2019-05-09T10:54:14.118Z,83.82
2019-05-09T10:55:20.099Z,83.07
2019-05-09T10:56:28.339Z,83.78
2019-05-09T10:57:34.319Z,83.29
2019-05-09T10:58:37.509Z,83.61
2019-05-09T10:59:42.513Z,83.28
2019-05-09T11:00:48.378Z,83.92
2019-05-09T11:01:52.139Z,83.36
2019-05-09T11:02:55.001Z,83.36
2019-05-09T11:03:58.976Z,84.73
2019-05-09T11:05:08.216Z,85.32
2019-05-09T11:06:12.564Z,85.63
2019-05-09T11:07:18.063Z,85.61
2019-05-09T11:08:20.350Z,85.88
2019-05-09T11:09:23.220Z,85.88
2019-05-09T11:10:32.484Z,85.64
2019-05-09T11:11:35.836Z,85.95
2019-05-09T11:12:44.396Z,87.46
2019-05-09T11:13:48.247Z,88.02
2019-05-09T11:14:52.247Z,87.17
2019-05-09T11:15:55.058Z,87.78
2019-05-09T11:17:07.910Z,87.94
2019-05-09T11:18:05.190Z,88.13
2019-05-09T11:19:08.326Z,88.08
2019-05-09T11:20:11.125Z,88.27
2019-05-09T11:21:24.614Z,87.75
2019-05-09T11:22:30.147Z,87.75
2019-05-09T11:23:39.322Z,87.56
2019-05-09T11:24:49.792Z,88.12
2019-05-09T11:25:49.866Z,88.78
2019-05-09T11:26:52.667Z,89.54
2019-05-09T11:28:11.128Z,89.54
2019-05-09T11:29:07.989Z,89.49
2019-05-09T11:30:11.023Z,90.91
2019-05-09T11:31:14.525Z,91.01
2019-05-09T11:32:17.878Z,90.55
2019-05-09T11:33:21.416Z,91.07
2019-05-09T11:34:31.361Z,91.49
2019-05-09T11:35:34.554Z,91.79
2019-05-09T11:36:40.402Z,92.00
2019-05-09T11:37:48.048Z,92.46
2019-05-09T11:38:50.443Z,92.46
2019-05-09T11:39:53.497Z,93.41
2019-05-09T11:40:57.881Z,93.55
2019-05-09T11:42:00.643Z,93.10
2019-05-09T11:43:03.342Z,93.43
2019-05-09T11:44:08.752Z,94.07
2019-05-09T11:45:17.737Z,93.58
2019-05-09T11:46:19.952Z,93.91
2019-05-09T11:47:34.356Z,94.32
2019-05-09T11:48:28.365Z,93.76
2019-05-09T11:49:35.952Z,92.61
2019-05-09T11:50:39.060Z,93.25
2019-05-09T11:51:50.147Z,93.47
2019-05-09T11:52:59.757Z,93.29
2019-05-09T11:54:02.314Z,92.26
2019-05-09T11:55:27.469Z,92.08
2019-05-09T11:56:21.458Z,92.37
2019-05-09T11:57:27.578Z,90.84
2019-05-09T11:58:29.265Z,91.81
2019-05-09T11:59:32.081Z,91.49
2019-05-09T12:00:34.820Z,91.31
2019-05-09T12:01:39.694Z,90.55
2019-05-09T12:02:43.744Z,89.68
2019-05-09T12:03:51.937Z,90.10
2019-05-09T12:04:57.175Z,90.16
2019-05-09T12:06:00.043Z,90.70
2019-05-09T12:07:02.981Z,90.70
2019-05-09T12:08:08.264Z,90.03
2019-05-09T12:09:10.397Z,88.25
2019-05-09T12:10:22.606Z,88.94
2019-05-09T12:11:25.540Z,88.90
2019-05-09T12:12:28.458Z,88.90
2019-05-09T12:13:31.155Z,88.91
2019-05-09T12:14:38.189Z,87.96
2019-05-09T12:15:43.784Z,88.39
2019-05-09T12:16:50.154Z,88.39
2019-05-09T12:18:02.486Z,90.12
2019-05-09T12:19:02.709Z,90.06
2019-05-09T12:20:12.289Z,89.79
2019-05-09T12:21:10.212Z,89.79
2019-05-09T12:22:15.097Z,90.82
2019-05-09T12:23:20.931Z,90.70
2019-05-09T12:24:29.641Z,90.25
2019-05-09T12:25:40.323Z,90.55
2019-05-09T12:26:48.150Z,90.55
2019-05-09T12:27:52.444Z,88.90
2019-05-09T12:29:00.362Z,88.90
2019-05-09T12:30:07.712Z,87.71
2019-05-09T12:31:14.313Z,88.33
2019-05-09T12:32:20.296Z,86.24
2019-05-09T12:33:23.271Z,85.37
2019-05-09T12:34:27.722Z,86.04
2019-05-09T12:35:33.646Z,85.77
2019-05-09T12:36:39.761Z,86.24
2019-05-09T12:37:43.493Z,86.27
2019-05-09T12:38:59.098Z,86.27
2019-05-09T12:40:01.100Z,86.72
2019-05-09T12:41:04.124Z,85.52
2019-05-09T12:42:08.898Z,84.40
2019-05-09T12:43:14.727Z,85.81
2019-05-09T12:44:19.875Z,86.62
2019-05-09T12:45:25.204Z,86.15
2019-05-09T12:46:32.811Z,85.15
2019-05-09T12:47:39.365Z,85.17
2019-05-09T12:48:42.190Z,85.17
2019-05-09T12:49:45.162Z,84.13
2019-05-09T12:50:48.872Z,83.71
2019-05-09T12:51:52.154Z,83.38
2019-05-09T12:52:58.195Z,83.58
2019-05-09T12:54:03.060Z,83.13
2019-05-09T12:55:08.141Z,83.10
2019-05-09T12:56:14.821Z,83.34
2019-05-09T12:57:19.266Z,83.34
2019-05-09T12:59:52.753Z,82.44
2019-05-09T13:00:53.752Z,82.85
2019-05-09T13:01:58.046Z,82.85
2019-05-09T13:03:08.518Z,82.54
2019-05-09T13:04:17.805Z,82.76
2019-05-09T13:05:27.410Z,82.15
2019-05-09T13:06:30.427Z,82.05
2019-05-09T13:07:33.417Z,82.05
2019-05-09T13:08:38.771Z,82.78
2019-05-09T13:09:41.679Z,82.60
2019-05-09T13:10:45.003Z,83.88
2019-05-09T13:11:49.494Z,83.88
2019-05-09T13:12:54.014Z,83.51
2019-05-09T13:13:56.945Z,84.26
2019-05-09T13:14:59.836Z,84.30
2019-05-09T13:16:11.978Z,84.51
2019-05-09T13:17:24.198Z,84.52
2019-05-09T13:18:45.499Z,84.16
2019-05-09T13:19:49.467Z,83.29
2019-05-09T13:20:52.536Z,83.29
2019-05-09T13:21:58.880Z,83.55
2019-05-09T13:23:01.607Z,83.32
2019-05-09T13:24:04.634Z,83.65
2019-05-09T13:25:12.317Z,83.65
2019-05-09T13:26:15.220Z,83.76
2019-05-09T13:27:19.077Z,83.76
2019-05-09T13:28:22.454Z,84.00
2019-05-09T13:29:25.209Z,83.23
2019-05-09T13:30:29.739Z,83.23
2019-05-09T13:31:34.759Z,82.60
2019-05-09T13:32:39.535Z,84.36
2019-05-09T13:33:43.026Z,84.04
2019-05-09T13:34:48.682Z,84.82
2019-05-09T13:35:50.828Z,84.82
2019-05-09T13:36:55.244Z,85.83
2019-05-09T13:38:02.935Z,86.06
2019-05-09T13:39:08.661Z,86.14
2019-05-09T13:40:13.559Z,86.08
2019-05-09T13:41:20.799Z,85.97
2019-05-09T13:42:23.624Z,86.24
2019-05-09T13:43:28.091Z,86.25
2019-05-09T13:44:31.001Z,86.32
2019-05-09T13:45:34.248Z,86.74
2019-05-09T13:46:39.224Z,86.96
2019-05-09T13:47:42.745Z,87.01
2019-05-09T13:49:04.489Z,87.58
2019-05-09T13:49:50.663Z,87.86
2019-05-09T13:50:53.560Z,87.97
2019-05-09T13:52:01.261Z,87.95
2019-05-09T13:53:03.174Z,87.54
2019-05-09T13:54:06.050Z,87.02
2019-05-09T13:55:08.992Z,87.95
2019-05-09T13:56:12.301Z,87.74
2019-05-09T13:57:18.735Z,87.98
2019-05-09T13:58:21.344Z,88.40
2019-05-09T13:59:29.285Z,87.92
2019-05-09T14:00:31.435Z,88.35
2019-05-09T14:01:34.400Z,87.90
2019-05-09T14:02:38.554Z,87.67
2019-05-09T14:03:41.563Z,87.95
2019-05-09T14:04:48.713Z,87.56
2019-05-09T14:05:51.816Z,87.94
2019-05-09T14:06:54.758Z,87.94
2019-05-09T14:08:03.195Z,88.31
2019-05-09T14:09:05.218Z,87.65
2019-05-09T14:10:10.218Z,87.96
2019-05-09T14:11:13.161Z,87.95
2019-05-09T14:12:17.476Z,87.24
2019-05-09T14:13:23.454Z,87.04
2019-05-09T14:14:28.298Z,86.66
2019-05-09T14:15:31.469Z,86.66
2019-05-09T14:16:34.403Z,86.21
2019-05-09T14:17:48.145Z,86.36
2019-05-09T14:18:41.746Z,86.21
2019-05-09T14:19:47.043Z,85.79
2019-05-09T14:20:49.009Z,85.27
2019-05-09T14:21:52.883Z,85.32
2019-05-09T14:22:57.616Z,85.32
2019-05-09T14:24:10.894Z,84.99
2019-05-09T14:25:07.316Z,84.38
2019-05-09T14:26:10.043Z,84.38
2019-05-09T14:27:12.773Z,84.21
2019-05-09T14:28:18.552Z,84.21
2019-05-09T14:29:22.204Z,83.08
2019-05-09T14:30:27.547Z,83.08
2019-05-09T14:31:34.925Z,82.72
2019-05-09T14:32:40.095Z,82.72
2019-05-09T14:33:43.385Z,82.73
2019-05-09T14:34:49.690Z,83.20
2019-05-09T14:35:59.458Z,83.46
2019-05-09T14:37:02.399Z,84.13